首页
METAR-TAF:

METAR-TAF

机场 :

Space Coast Regional Airport

泰特斯维尔, 佛罗里达州, 美国

纬度: 28-31N, 经度: 080-48W, 海拔: 11米

当前天气观测

该预报发布于33分钟前的15:48 UTC
风速9节,风向东北
温度 29°C
湿度 58%
气压 1018 hPa
能見度: 11.3公里
多云层高于3300英尺

METAR: KTIX 231548Z 05009KT 7SM BKN033 29/20 A3007

时间: 12:21 (16:21 UTC)

预报

该预报发布于4小时和47分钟前的11:34 UTC
预报有效从23日的 12点(UTC)到 24日的 12点(UTC)
风速10节,风向东转东北
能見度: 10公里
多云层高于4500英尺
从 23日的 1400点(UTC)
风速12节,风向东转东北,有时为17节阵风
能見度: 10公里
散云层高于4000英尺
从 24日的 0100点(UTC)
风速8节,风向东北
能見度: 10公里
少量云层高于4000英尺

TAF: KTIX 231134Z 2312/2412 06010KT P6SM BKN045 FM231400 06012G17KT P6SM SCT040 FM240100 05008KT P6SM FEW040

超过4000个机场的气象观测和天气预报(METAR&TAF报告)。

可查询的气象台以黄色和红色小点在地图上表示。

将鼠标移到小点上方,可查看气象台名称。

然后点击查看天气观测和预报。

如需切换地图:点击带黑十字的绿色按钮放大地图;点击带横线的绿色按钮缩小地图;或者点击绿色箭头查看邻近地区的地图。


METAR-TAF: